createdAt,value
2023-07-10T00:05:44.688Z,100.00
2023-07-10T00:08:11.093Z,100.00
2023-07-10T00:19:30.371Z,100.00
2023-07-10T00:22:14.916Z,100.00
2023-07-10T00:24:53.553Z,100.00
2023-07-10T00:27:29.164Z,100.00
2023-07-10T00:29:55.539Z,100.00
2023-07-10T00:32:25.093Z,100.00
2023-07-10T00:35:09.825Z,100.00
2023-07-10T00:37:45.064Z,100.00
2023-07-10T00:40:52.274Z,100.00
2023-07-10T00:44:02.521Z,100.00
2023-07-10T00:46:47.552Z,100.00
2023-07-10T00:52:54.328Z,100.00
2023-07-10T00:55:57.641Z,100.00
2023-07-10T00:59:06.688Z,100.00
2023-07-10T01:01:54.914Z,100.00
2023-07-10T01:04:21.301Z,100.00
2023-07-10T01:06:47.707Z,100.00
2023-07-10T01:09:14.052Z,100.00
2023-07-10T01:11:41.446Z,100.00
2023-07-10T01:14:10.155Z,100.00
2023-07-10T01:17:11.015Z,100.00
2023-07-10T01:23:11.360Z,100.00
2023-07-10T01:32:34.175Z,100.00
2023-07-10T01:42:15.384Z,100.00
2023-07-10T01:54:48.243Z,100.00
2023-07-10T01:57:58.827Z,100.00
2023-07-10T02:00:46.497Z,100.00
2023-07-10T02:03:12.919Z,100.00
2023-07-10T02:05:39.355Z,100.00
2023-07-10T02:08:06.031Z,100.00
2023-07-10T02:10:43.834Z,100.00
2023-07-10T02:13:11.914Z,100.00
2023-07-10T02:15:38.318Z,100.00
2023-07-10T02:18:04.741Z,100.00
2023-07-10T02:20:31.128Z,100.00
2023-07-10T02:22:57.570Z,100.00
2023-07-10T02:25:24.070Z,100.00
2023-07-10T02:27:50.773Z,100.00
2023-07-10T02:30:17.331Z,100.00
2023-07-10T02:32:43.895Z,100.00
2023-07-10T02:35:10.333Z,100.00
2023-07-10T02:38:17.391Z,100.00
2023-07-10T02:41:02.393Z,100.00
2023-07-10T02:43:28.792Z,100.00
2023-07-10T02:45:55.225Z,100.00
2023-07-10T02:48:21.704Z,100.00
2023-07-10T02:51:03.119Z,100.00
2023-07-10T02:53:33.101Z,100.00
2023-07-10T02:55:59.642Z,100.00
2023-07-10T02:59:15.197Z,100.00
2023-07-10T03:01:49.242Z,100.00
2023-07-10T03:08:33.209Z,100.00
2023-07-10T03:11:36.847Z,100.00
2023-07-10T03:14:12.687Z,100.00
2023-07-10T03:16:42.153Z,100.00
2023-07-10T03:25:58.048Z,100.00
2023-07-10T03:28:24.421Z,100.00
2023-07-10T03:30:53.873Z,100.00
2023-07-10T03:33:23.745Z,100.00
2023-07-10T03:36:09.971Z,100.00
2023-07-10T03:38:36.431Z,100.00
2023-07-10T03:41:14.777Z,100.00
2023-07-10T03:43:41.131Z,100.00
2023-07-10T03:46:07.729Z,100.00
2023-07-10T03:48:34.379Z,100.00
2023-07-10T03:51:00.966Z,100.00
2023-07-10T03:57:38.859Z,100.00
2023-07-10T04:00:23.895Z,100.00
2023-07-10T04:03:27.555Z,100.00
2023-07-10T04:05:55.316Z,100.00
2023-07-10T04:08:22.516Z,100.00
2023-07-10T04:10:52.962Z,100.00
2023-07-10T04:13:19.837Z,100.00
2023-07-10T04:16:12.749Z,100.00
2023-07-10T04:18:40.356Z,100.00
2023-07-10T04:21:07.902Z,100.00
2023-07-10T04:23:34.349Z,100.00
2023-07-10T04:26:00.815Z,100.00
2023-07-10T04:28:27.342Z,100.00
2023-07-10T04:30:57.673Z,100.00
2023-07-10T04:33:24.108Z,100.00
2023-07-10T04:35:57.872Z,100.00
2023-07-10T04:38:25.300Z,100.00
2023-07-10T04:40:52.676Z,100.00
2023-07-10T04:43:19.062Z,100.00
2023-07-10T04:45:45.448Z,100.00
2023-07-10T04:48:11.942Z,100.00
2023-07-10T04:50:38.395Z,100.00
2023-07-10T04:53:04.830Z,100.00
2023-07-10T04:55:31.961Z,100.00
2023-07-10T04:57:58.316Z,100.00
2023-07-10T05:00:25.038Z,100.00
2023-07-10T05:02:51.418Z,100.00
2023-07-10T05:05:17.922Z,100.00
2023-07-10T05:07:44.292Z,100.00
2023-07-10T05:10:10.797Z,100.00
2023-07-10T05:12:37.171Z,100.00
2023-07-10T05:15:03.853Z,100.00
2023-07-10T05:17:30.288Z,100.00
2023-07-10T05:19:56.665Z,100.00
2023-07-10T05:22:23.086Z,100.00
2023-07-10T05:24:49.425Z,100.00
2023-07-10T05:27:15.809Z,100.00
2023-07-10T05:29:42.183Z,100.00
2023-07-10T05:32:08.971Z,100.00
2023-07-10T05:34:35.450Z,100.00
2023-07-10T05:37:01.892Z,100.00
2023-07-10T05:39:30.897Z,100.00
2023-07-10T05:41:59.389Z,100.00
2023-07-10T05:44:25.865Z,100.00
2023-07-10T05:46:53.042Z,100.00
2023-07-10T05:49:19.437Z,100.00
2023-07-10T05:51:45.805Z,100.00
2023-07-10T05:54:12.214Z,100.00
2023-07-10T05:56:38.578Z,100.00
2023-07-10T05:59:11.057Z,100.00
2023-07-10T06:01:37.479Z,100.00
2023-07-10T06:04:04.061Z,100.00
2023-07-10T06:06:30.522Z,100.00
2023-07-10T06:08:56.882Z,100.00
2023-07-10T06:11:23.257Z,100.00
2023-07-10T06:13:49.816Z,100.00
2023-07-10T06:16:16.280Z,100.00
2023-07-10T06:18:42.670Z,100.00
2023-07-10T06:21:10.195Z,100.00
2023-07-10T06:23:37.086Z,100.00
2023-07-10T06:26:04.582Z,100.00
2023-07-10T06:28:32.163Z,100.00
2023-07-10T06:31:00.196Z,100.00
2023-07-10T06:33:27.988Z,100.00
2023-07-10T06:35:54.392Z,100.00
2023-07-10T06:38:20.825Z,100.00
2023-07-10T06:40:48.024Z,100.00
2023-07-10T06:43:14.425Z,100.00
2023-07-10T06:45:41.101Z,100.00
2023-07-10T06:48:07.597Z,100.00
2023-07-10T06:50:34.029Z,100.00
2023-07-10T06:53:05.674Z,100.00
2023-07-10T06:55:45.933Z,100.00
2023-07-10T06:58:13.368Z,100.00
2023-07-10T07:00:40.481Z,100.00
2023-07-10T07:03:08.574Z,100.00
2023-07-10T07:05:35.232Z,100.00
2023-07-10T07:08:01.638Z,100.00
2023-07-10T07:10:28.231Z,100.00
2023-07-10T07:12:54.591Z,100.00
2023-07-10T07:15:20.943Z,100.00
2023-07-10T07:17:47.568Z,100.00
2023-07-10T07:20:13.952Z,100.00
2023-07-10T07:22:40.329Z,100.00
2023-07-10T07:25:06.874Z,100.00
2023-07-10T07:27:33.469Z,100.00
2023-07-10T07:30:03.429Z,100.00
2023-07-10T07:32:29.873Z,100.00
2023-07-10T07:34:56.272Z,100.00
2023-07-10T07:37:22.651Z,100.00
2023-07-10T07:39:49.161Z,100.00
2023-07-10T07:42:15.624Z,100.00
2023-07-10T07:44:42.396Z,100.00
2023-07-10T07:47:09.123Z,100.00
2023-07-10T07:49:35.497Z,100.00
2023-07-10T07:52:01.849Z,100.00
2023-07-10T07:54:28.238Z,100.00
2023-07-10T07:56:54.703Z,100.00
2023-07-10T07:59:22.944Z,100.00
2023-07-10T08:01:50.380Z,100.00
2023-07-10T08:04:17.412Z,100.00
2023-07-10T08:06:44.615Z,100.00
2023-07-10T08:09:11.096Z,100.00
2023-07-10T08:11:37.396Z,100.00
2023-07-10T08:14:03.812Z,100.00
2023-07-10T08:16:30.265Z,100.00
2023-07-10T08:18:56.740Z,100.00
2023-07-10T08:21:23.072Z,100.00
2023-07-10T08:23:49.411Z,100.00
2023-07-10T08:26:15.762Z,100.00
2023-07-10T08:28:42.197Z,100.00
2023-07-10T08:31:08.774Z,100.00
2023-07-10T08:33:35.243Z,100.00
2023-07-10T08:36:06.064Z,100.00
2023-07-10T08:38:33.603Z,100.00
2023-07-10T08:41:01.933Z,100.00
2023-07-10T08:43:36.295Z,100.00
2023-07-10T08:46:05.789Z,100.00
2023-07-10T08:48:38.066Z,100.00
2023-07-10T08:51:11.725Z,100.00
2023-07-10T08:53:42.810Z,100.00
2023-07-10T08:56:28.350Z,100.00
2023-07-10T08:58:59.432Z,100.00
2023-07-10T09:01:31.435Z,100.00
2023-07-10T09:03:59.940Z,100.00
2023-07-10T09:06:29.103Z,100.00
2023-07-10T09:08:56.895Z,100.00
2023-07-10T09:11:23.943Z,100.00
2023-07-10T09:13:56.957Z,100.00
2023-07-10T09:16:23.391Z,100.00
2023-07-10T09:18:52.712Z,100.00
2023-07-10T09:21:20.927Z,100.00
2023-07-10T09:23:47.924Z,100.00
2023-07-10T09:26:16.268Z,100.00
2023-07-10T09:28:43.129Z,100.00
2023-07-10T09:31:09.453Z,100.00
2023-07-10T09:33:42.841Z,100.00
2023-07-10T09:36:16.595Z,100.00
2023-07-10T09:38:43.706Z,100.00
2023-07-10T09:41:14.319Z,100.00
2023-07-10T09:43:49.189Z,100.00
2023-07-10T09:46:15.599Z,100.00
2023-07-10T09:48:41.952Z,100.00
2023-07-10T09:51:09.381Z,100.00
2023-07-10T09:53:45.357Z,100.00
2023-07-10T09:56:19.754Z,100.00
2023-07-10T09:58:47.178Z,100.00
2023-07-10T10:01:13.615Z,100.00
2023-07-10T10:03:42.896Z,100.00
2023-07-10T10:06:19.781Z,100.00
2023-07-10T10:08:47.211Z,100.00
2023-07-10T10:11:14.002Z,100.00
2023-07-10T10:13:40.315Z,100.00
2023-07-10T10:16:08.043Z,100.00
2023-07-10T10:18:34.710Z,100.00
2023-07-10T10:21:02.362Z,100.00
2023-07-10T10:23:33.132Z,100.00
2023-07-10T10:26:07.905Z,100.00
2023-07-10T10:28:38.772Z,100.00
2023-07-10T10:31:09.052Z,100.00
2023-07-10T10:33:35.368Z,100.00
2023-07-10T10:36:16.404Z,100.00
2023-07-10T10:38:50.177Z,100.00
2023-07-10T10:41:27.568Z,100.00
2023-07-10T10:44:09.380Z,100.00
2023-07-10T10:46:47.911Z,100.00
2023-07-10T10:49:32.836Z,100.00
2023-07-10T10:52:02.221Z,100.00
2023-07-10T10:54:36.076Z,100.00
2023-07-10T10:57:11.622Z,100.00
2023-07-10T10:59:46.528Z,100.00
2023-07-10T11:02:16.005Z,100.00
2023-07-10T11:04:44.654Z,100.00
2023-07-10T11:07:13.060Z,100.00
2023-07-10T11:09:43.405Z,100.00
2023-07-10T11:12:20.648Z,100.00
2023-07-10T11:14:47.280Z,100.00
2023-07-10T11:17:14.062Z,100.00
2023-07-10T11:19:41.364Z,100.00
2023-07-10T11:22:26.587Z,100.00
2023-07-10T11:24:53.501Z,100.00
2023-07-10T11:27:33.228Z,100.00
2023-07-10T11:30:07.335Z,100.00
2023-07-10T11:32:35.841Z,100.00
2023-07-10T11:35:20.696Z,100.00
2023-07-10T11:37:50.931Z,100.00
2023-07-10T11:40:29.658Z,100.00
2023-07-10T11:42:57.769Z,100.00
2023-07-10T11:45:31.486Z,100.00
2023-07-10T11:47:57.951Z,100.00
2023-07-10T11:50:25.818Z,100.00
2023-07-10T11:53:10.974Z,100.00
2023-07-10T11:59:22.780Z,100.00
2023-07-10T12:01:49.182Z,100.00
2023-07-10T12:04:16.090Z,100.00
2023-07-10T12:06:46.757Z,100.00
2023-07-10T12:09:13.205Z,100.00
2023-07-10T12:11:40.386Z,100.00
2023-07-10T12:14:10.376Z,100.00
2023-07-10T12:16:47.575Z,100.00
2023-07-10T12:19:26.332Z,100.00
2023-07-10T12:21:52.840Z,100.00
2023-07-10T12:24:20.042Z,100.00
2023-07-10T12:27:54.671Z,100.00
2023-07-10T12:29:48.047Z,100.00
2023-07-10T12:32:15.337Z,100.00
2023-07-10T12:34:42.009Z,100.00
2023-07-10T12:37:10.662Z,100.00
2023-07-10T12:39:37.180Z,100.00
2023-07-10T12:42:03.658Z,100.00
2023-07-10T12:44:31.100Z,100.00
2023-07-10T12:47:03.710Z,100.00
2023-07-10T12:49:31.511Z,100.00
2023-07-10T12:51:58.891Z,100.00
2023-07-10T12:54:28.832Z,100.00
2023-07-10T12:56:55.556Z,100.00
2023-07-10T12:59:32.009Z,100.00
2023-07-10T13:02:18.721Z,100.00
2023-07-10T13:04:50.060Z,100.00
2023-07-10T13:07:30.649Z,100.00
2023-07-10T13:09:59.519Z,100.00
2023-07-10T13:12:33.754Z,100.00
2023-07-10T13:15:01.485Z,99.69
2023-07-10T13:17:31.592Z,96.26
2023-07-10T13:20:07.844Z,100.00
2023-07-10T13:22:35.302Z,100.00
2023-07-10T13:25:06.209Z,97.39
2023-07-10T13:27:32.616Z,91.04
2023-07-10T13:29:58.979Z,85.08
2023-07-10T13:32:25.396Z,81.30
2023-07-10T13:34:52.197Z,96.84
2023-07-10T13:37:20.589Z,85.32
2023-07-10T13:39:47.632Z,81.31
2023-07-10T13:42:14.010Z,71.93
2023-07-10T13:44:41.574Z,65.30
2023-07-10T13:47:15.253Z,71.70
2023-07-10T13:49:42.032Z,68.45
2023-07-10T13:52:25.615Z,73.55
2023-07-10T13:54:53.072Z,60.97
2023-07-10T13:57:24.034Z,65.33
2023-07-10T13:59:51.081Z,59.94
2023-07-10T14:02:25.463Z,57.10
2023-07-10T14:04:52.521Z,52.52
2023-07-10T14:07:22.607Z,49.92
2023-07-10T14:09:49.057Z,55.34
2023-07-10T14:12:16.119Z,54.82
2023-07-10T14:14:42.642Z,50.40
2023-07-10T14:17:23.778Z,49.71
2023-07-10T14:19:50.941Z,44.72
2023-07-10T14:22:17.407Z,49.75
2023-07-10T14:24:44.119Z,53.00
2023-07-10T14:27:21.078Z,51.29
2023-07-10T14:29:48.088Z,49.60
2023-07-10T14:32:15.338Z,48.83
2023-07-10T14:34:42.239Z,49.90
2023-07-10T14:37:13.517Z,52.92
2023-07-10T14:39:40.286Z,52.17
2023-07-10T14:42:14.335Z,47.92
2023-07-10T14:44:40.841Z,45.96
2023-07-10T14:47:17.347Z,48.95
2023-07-10T14:49:43.766Z,44.40
2023-07-10T14:52:18.013Z,46.56
2023-07-10T14:54:44.347Z,46.97
2023-07-10T14:57:18.946Z,49.15
2023-07-10T14:59:45.274Z,54.78
2023-07-10T15:02:20.600Z,52.03
2023-07-10T15:04:48.360Z,52.97
2023-07-10T15:07:15.207Z,55.74
2023-07-10T15:09:43.626Z,59.30
2023-07-10T15:12:15.621Z,65.69
2023-07-10T15:14:42.298Z,64.22
2023-07-10T15:17:10.692Z,59.80
2023-07-10T15:19:38.400Z,61.45
2023-07-10T15:22:05.627Z,54.58
2023-07-10T15:24:35.853Z,56.42
2023-07-10T15:27:02.642Z,62.13
2023-07-10T15:29:31.651Z,57.18
2023-07-10T15:32:17.905Z,58.85
2023-07-10T15:34:44.818Z,61.47
2023-07-10T15:37:21.967Z,69.99
2023-07-10T15:39:48.861Z,78.58
2023-07-10T15:42:16.558Z,83.30
2023-07-10T15:44:43.254Z,91.92
2023-07-10T15:47:19.286Z,89.06
2023-07-10T15:49:45.711Z,87.98
2023-07-10T15:52:32.342Z,78.88
2023-07-10T15:55:04.079Z,82.30
2023-07-10T15:57:30.561Z,87.79
2023-07-10T15:59:57.003Z,87.40
2023-07-10T16:02:25.757Z,89.09
2023-07-10T16:04:52.496Z,88.26
2023-07-10T16:07:18.879Z,82.00
2023-07-10T16:09:45.349Z,88.39
2023-07-10T16:12:15.803Z,88.59
2023-07-10T16:14:42.212Z,87.82
2023-07-10T16:17:12.810Z,89.90
2023-07-10T16:19:39.814Z,92.02
2023-07-10T16:22:09.499Z,92.76
2023-07-10T16:24:36.562Z,89.30
2023-07-10T16:27:03.555Z,93.49
2023-07-10T16:29:29.970Z,91.55
2023-07-10T16:31:56.649Z,93.46
2023-07-10T16:34:24.005Z,95.01
2023-07-10T16:36:52.738Z,96.01
2023-07-10T16:39:19.080Z,92.17
2023-07-10T16:41:45.514Z,93.05
2023-07-10T16:44:12.867Z,93.49
2023-07-10T16:46:39.218Z,94.86
2023-07-10T16:49:05.557Z,97.64
2023-07-10T16:51:31.941Z,98.08
2023-07-10T16:53:59.127Z,100.00
2023-07-10T16:56:25.716Z,100.00
2023-07-10T16:58:52.635Z,100.00
2023-07-10T17:01:26.166Z,100.00
2023-07-10T17:03:54.169Z,100.00
2023-07-10T17:06:22.006Z,100.00
2023-07-10T17:08:48.332Z,100.00
2023-07-10T17:11:17.974Z,100.00
2023-07-10T17:13:44.307Z,100.00
2023-07-10T17:16:11.130Z,100.00
2023-07-10T17:18:37.529Z,100.00
2023-07-10T17:21:04.935Z,100.00
2023-07-10T17:23:32.919Z,100.00
2023-07-10T17:25:59.811Z,100.00
2023-07-10T17:28:31.901Z,100.00
2023-07-10T17:31:00.796Z,100.00
2023-07-10T17:33:36.222Z,100.00
2023-07-10T17:36:03.525Z,100.00
2023-07-10T17:38:31.423Z,100.00
2023-07-10T17:40:57.776Z,100.00
2023-07-10T17:43:24.821Z,100.00
2023-07-10T17:45:51.236Z,100.00
2023-07-10T17:48:19.148Z,100.00
2023-07-10T17:50:45.896Z,100.00
2023-07-10T17:53:16.270Z,100.00
2023-07-10T17:55:46.854Z,100.00
2023-07-10T17:58:14.423Z,100.00
2023-07-10T18:00:40.916Z,100.00
2023-07-10T18:03:09.583Z,100.00
2023-07-10T18:05:35.949Z,100.00
2023-07-10T18:08:02.477Z,100.00
2023-07-10T18:10:28.807Z,100.00
2023-07-10T18:12:55.138Z,100.00
2023-07-10T18:15:21.641Z,100.00
2023-07-10T18:17:48.046Z,100.00
2023-07-10T18:20:14.588Z,100.00
2023-07-10T18:22:42.373Z,100.00
2023-07-10T18:25:19.386Z,100.00
2023-07-10T18:27:46.665Z,100.00
2023-07-10T18:30:14.552Z,100.00
2023-07-10T18:32:41.059Z,100.00
2023-07-10T18:35:08.981Z,100.00
2023-07-10T18:37:35.325Z,100.00
2023-07-10T18:40:01.803Z,100.00
2023-07-10T18:42:30.612Z,100.00
2023-07-10T18:44:57.452Z,100.00
2023-07-10T18:47:23.924Z,100.00
2023-07-10T18:49:50.303Z,100.00
2023-07-10T18:52:23.574Z,100.00
2023-07-10T18:54:49.988Z,100.00
2023-07-10T18:57:16.820Z,100.00
2023-07-10T18:59:43.423Z,100.00
2023-07-10T19:02:10.166Z,100.00
2023-07-10T19:04:36.663Z,100.00
2023-07-10T19:07:03.059Z,100.00
2023-07-10T19:09:30.347Z,100.00
2023-07-10T19:11:57.354Z,100.00
2023-07-10T19:14:25.086Z,100.00
2023-07-10T19:16:55.352Z,100.00
2023-07-10T19:19:23.380Z,100.00
2023-07-10T19:21:50.171Z,100.00
2023-07-10T19:24:17.580Z,100.00
2023-07-10T19:26:44.904Z,100.00
2023-07-10T19:29:11.414Z,100.00
2023-07-10T19:31:38.696Z,100.00
2023-07-10T19:34:05.146Z,100.00
2023-07-10T19:36:31.611Z,100.00
2023-07-10T19:38:58.012Z,100.00
2023-07-10T19:41:24.431Z,100.00
2023-07-10T19:43:50.844Z,100.00
2023-07-10T19:46:18.951Z,100.00
2023-07-10T19:48:45.500Z,100.00
2023-07-10T19:51:11.988Z,100.00
2023-07-10T19:53:38.365Z,100.00
2023-07-10T19:56:15.670Z,100.00
2023-07-10T19:58:43.625Z,100.00
2023-07-10T20:01:12.184Z,100.00
2023-07-10T20:03:38.610Z,100.00
2023-07-10T20:06:06.753Z,100.00
2023-07-10T20:08:35.327Z,100.00
2023-07-10T20:11:07.233Z,100.00
2023-07-10T20:13:34.447Z,100.00
2023-07-10T20:16:05.999Z,100.00
2023-07-10T20:18:34.582Z,100.00
2023-07-10T20:21:01.402Z,100.00
2023-07-10T20:23:28.285Z,100.00
2023-07-10T20:25:59.528Z,100.00
2023-07-10T20:28:27.672Z,100.00
2023-07-10T20:30:55.634Z,100.00
2023-07-10T20:33:23.145Z,100.00
2023-07-10T20:35:50.167Z,100.00
2023-07-10T20:38:18.115Z,100.00
2023-07-10T20:40:45.136Z,100.00
2023-07-10T20:43:13.704Z,100.00
2023-07-10T20:45:41.294Z,100.00
2023-07-10T20:48:15.770Z,100.00
2023-07-10T20:50:43.222Z,100.00
2023-07-10T20:53:13.166Z,100.00
2023-07-10T20:55:40.220Z,100.00
2023-07-10T20:58:18.101Z,100.00
2023-07-10T21:00:45.306Z,100.00
2023-07-10T21:03:15.653Z,100.00
2023-07-10T21:05:42.792Z,100.00
2023-07-10T21:08:22.311Z,100.00
2023-07-10T21:10:49.402Z,100.00
2023-07-10T21:13:17.230Z,100.00
2023-07-10T21:15:43.897Z,100.00
2023-07-10T21:18:22.912Z,100.00
2023-07-10T21:20:50.545Z,100.00
2023-07-10T21:23:30.734Z,100.00
2023-07-10T21:25:59.030Z,100.00
2023-07-10T21:28:27.640Z,100.00
2023-07-10T21:30:54.109Z,100.00
2023-07-10T21:33:22.149Z,100.00
2023-07-10T21:35:50.928Z,100.00
2023-07-10T21:38:17.260Z,100.00
2023-07-10T21:40:44.651Z,100.00
2023-07-10T21:43:16.437Z,100.00
2023-07-10T21:45:42.877Z,100.00
2023-07-10T21:48:14.652Z,100.00
2023-07-10T21:50:41.007Z,100.00
2023-07-10T21:53:07.336Z,100.00
2023-07-10T21:55:33.674Z,100.00
2023-07-10T21:58:03.077Z,100.00
2023-07-10T22:00:35.495Z,100.00
2023-07-10T22:03:42.909Z,100.00
2023-07-10T22:06:47.106Z,100.00
2023-07-10T22:09:22.242Z,100.00
2023-07-10T22:11:48.719Z,100.00
2023-07-10T22:18:04.986Z,100.00
2023-07-10T22:23:53.295Z,100.00
2023-07-10T22:26:47.497Z,100.00
2023-07-10T22:29:44.588Z,100.00
2023-07-10T22:35:47.622Z,100.00
2023-07-10T22:41:47.888Z,100.00
2023-07-10T22:44:18.338Z,100.00
2023-07-10T22:46:48.560Z,100.00
2023-07-10T22:53:05.258Z,100.00
2023-07-10T22:59:05.875Z,100.00
2023-07-10T23:04:47.024Z,100.00
2023-07-10T23:07:13.362Z,100.00
2023-07-10T23:09:39.788Z,100.00
2023-07-10T23:12:37.333Z,100.00
2023-07-10T23:37:42.362Z,100.00
2023-07-10T23:40:14.923Z,100.00
2023-07-10T23:46:03.063Z,100.00
2023-07-10T23:48:29.491Z,100.00
2023-07-10T23:50:55.956Z,100.00
2023-07-10T23:53:23.290Z,100.00
2023-07-10T23:55:49.657Z,100.00
2023-07-10T23:58:16.081Z,100.00
